Time;durP1;ratioP1;P1;durP2;ratioP2;P2;SDS_P1;SDS_P2;PMS_P1;PMS_P2;Temp;Humidity;BMP_temperature;BMP_pressure;BME280_temperature;BME280_humidity;BME280_pressure;Samples;Min_cycle;Max_cycle;Signal;HPM_P1;HPM_P2
2023/09/19 00:00:41;;;;;;;26.77;25.30;;;;;;;17.56;100.00;100013.31;4934850;29;20436;-47
2023/09/19 00:03:09;;;;;;;27.97;26.57;;;;;;;17.54;100.00;100020.00;4934717;29;20986;-43
2023/09/19 00:05:39;;;;;;;29.03;27.27;;;;;;;17.53;100.00;100031.88;4934446;29;20444;-44
2023/09/19 00:08:07;;;;;;;29.53;28.03;;;;;;;17.44;100.00;100057.69;4934452;29;20465;-43
2023/09/19 00:10:35;;;;;;;31.47;29.60;;;;;;;17.44;100.00;100063.06;4934340;29;20508;-45
2023/09/19 00:13:05;;;;;;;33.60;31.67;;;;;;;17.42;100.00;100060.63;4934903;29;20456;-41
2023/09/19 00:15:40;;;;;;;32.97;31.37;;;;;;;17.35;100.00;100062.72;4934882;29;20501;-44
2023/09/19 00:18:09;;;;;;;32.53;31.00;;;;;;;17.25;100.00;100068.03;4934037;28;20460;-46
2023/09/19 00:20:38;;;;;;;32.90;31.10;;;;;;;17.23;100.00;100062.09;4934336;29;20441;-41
2023/09/19 00:23:08;;;;;;;33.93;32.53;;;;;;;17.17;100.00;100062.31;4934603;29;21133;-44
2023/09/19 00:25:36;;;;;;;31.83;30.53;;;;;;;17.11;100.00;100067.63;4934743;29;20487;-43
2023/09/19 00:28:07;;;;;;;31.53;29.93;;;;;;;17.02;100.00;100060.28;4934172;29;20460;-41
2023/09/19 00:30:35;;;;;;;30.63;29.20;;;;;;;17.01;100.00;100064.84;4934135;29;20479;-43
2023/09/19 00:33:06;;;;;;;30.10;28.60;;;;;;;16.92;100.00;100061.00;4934424;29;21006;-43
2023/09/19 00:35:34;;;;;;;31.90;30.27;;;;;;;16.88;100.00;100059.03;4934337;29;20440;-43
2023/09/19 00:38:02;;;;;;;33.60;32.10;;;;;;;16.84;100.00;100071.41;4933880;29;20465;-45
2023/09/19 00:40:30;;;;;;;34.77;32.83;;;;;;;16.81;100.00;100075.44;4934062;29;20472;-46
2023/09/19 00:43:00;;;;;;;35.50;33.50;;;;;;;16.78;100.00;100080.50;4934390;29;20458;-44
2023/09/19 00:45:29;;;;;;;35.13;32.93;;;;;;;16.75;100.00;100071.06;4934045;29;20444;-46
2023/09/19 00:47:57;;;;;;;37.57;34.90;;;;;;;16.73;100.00;100075.84;4933955;29;20464;-43
2023/09/19 00:50:29;;;;;;;35.97;33.60;;;;;;;16.75;100.00;100073.75;4933743;29;20472;-42
2023/09/19 00:52:57;;;;;;;36.77;34.50;;;;;;;16.73;100.00;100075.84;4934258;29;20456;-40
2023/09/19 00:55:25;;;;;;;37.67;34.77;;;;;;;16.74;100.00;100096.34;4934194;29;20445;-40
2023/09/19 00:57:54;;;;;;;36.43;34.13;;;;;;;16.73;100.00;100094.69;4933823;28;20464;-43
2023/09/19 01:00:23;;;;;;;39.33;36.60;;;;;;;16.71;100.00;100096.03;4934170;29;20449;-42
2023/09/19 01:02:50;;;;;;;38.00;35.03;;;;;;;16.73;100.00;100096.56;4934032;29;20476;-44
2023/09/19 01:05:19;;;;;;;41.63;38.47;;;;;;;16.70;100.00;100105.97;4934054;29;20441;-43
2023/09/19 01:07:48;;;;;;;43.67;40.90;;;;;;;16.70;100.00;100102.47;4933563;29;20461;-41
2023/09/19 01:10:20;;;;;;;41.70;38.97;;;;;;;16.67;100.00;100100.28;4933820;29;20487;-45
2023/09/19 01:12:56;;;;;;;36.20;34.30;;;;;;;16.62;100.00;100108.31;4933836;29;20444;-43
2023/09/19 01:15:34;;;;;;;37.60;34.77;;;;;;;16.57;100.00;100117.13;4935496;29;20443;-44
2023/09/19 01:18:12;;;;;;;35.17;33.20;;;;;;;16.55;100.00;100117.38;4931172;29;20478;-44
2023/09/19 01:20:47;;;;;;;31.97;30.00;;;;;;;16.47;100.00;100108.91;4937575;29;20846;-43
2023/09/19 01:23:24;;;;;;;33.23;30.93;;;;;;;16.40;100.00;100110.94;4937689;29;20439;-38
2023/09/19 01:26:15;;;;;;;28.73;26.60;;;;;;;16.31;100.00;100117.81;4930189;29;21010;-41
2023/09/19 01:28:55;;;;;;;32.10;29.87;;;;;;;16.30;100.00;100124.28;4937161;28;21015;-43
2023/09/19 01:31:29;;;;;;;32.20;29.80;;;;;;;16.28;100.00;100132.59;4937326;29;20479;-47
2023/09/19 01:34:00;;;;;;;28.57;26.47;;;;;;;16.29;100.00;100131.53;4930912;29;20860;-44
2023/09/19 01:36:29;;;;;;;29.03;27.13;;;;;;;16.23;100.00;100127.16;4937739;29;20464;-43
2023/09/19 01:39:05;;;;;;;30.77;28.57;;;;;;;16.21;100.00;100123.09;4937147;29;20931;-43
2023/09/19 01:41:45;;;;;;;30.57;28.40;;;;;;;16.15;100.00;100119.50;4937295;29;20484;-46
2023/09/19 01:44:20;;;;;;;31.60;29.50;;;;;;;16.11;100.00;100123.75;4937975;29;20788;-42
2023/09/19 01:46:49;;;;;;;30.37;28.60;;;;;;;16.13;100.00;100131.59;4937498;29;20823;-44
2023/09/19 01:49:28;;;;;;;31.20;29.00;;;;;;;16.09;100.00;100125.88;4936885;28;20461;-47
2023/09/19 01:52:06;;;;;;;31.57;29.30;;;;;;;16.10;100.00;100134.78;4930082;29;20479;-44
2023/09/19 01:54:40;;;;;;;31.00;28.83;;;;;;;16.08;100.00;100134.19;4937176;29;20523;-49
2023/09/19 01:57:15;;;;;;;35.47;32.87;;;;;;;16.04;100.00;100132.00;4936959;29;20507;-43
2023/09/19 01:59:49;;;;;;;32.13;30.20;;;;;;;15.99;100.00;100128.41;4936944;29;20436;-42
2023/09/19 02:02:21;;;;;;;36.43;33.17;;;;;;;15.97;100.00;100134.06;4937079;29;20828;-41
2023/09/19 02:04:50;;;;;;;36.50;34.20;;;;;;;15.92;100.00;100130.44;4936939;29;20437;-45
2023/09/19 02:07:18;;;;;;;37.83;35.07;;;;;;;15.87;100.00;100131.19;4936929;29;20445;-48
2023/09/19 02:09:47;;;;;;;38.67;36.00;;;;;;;15.84;100.00;100123.63;4937120;29;20440;-45
2023/09/19 02:12:15;;;;;;;39.63;36.77;;;;;;;15.77;100.00;100133.72;4937142;29;20491;-40
2023/09/19 02:14:43;;;;;;;36.53;34.50;;;;;;;15.73;100.00;100134.47;4936675;29;20500;-46
2023/09/19 02:17:12;;;;;;;37.83;35.70;;;;;;;15.69;100.00;100128.75;4936586;29;20835;-41
2023/09/19 02:19:41;;;;;;;36.77;34.90;;;;;;;15.61;100.00;100128.34;4936841;29;20445;-44
2023/09/19 02:22:10;;;;;;;36.70;34.30;;;;;;;15.60;100.00;100132.09;4936975;29;20569;-40
2023/09/19 02:24:38;;;;;;;38.50;36.17;;;;;;;15.58;100.00;100129.66;4936657;29;20887;-43
2023/09/19 02:27:07;;;;;;;35.97;33.90;;;;;;;15.53;100.00;100124.19;4941241;28;20944;-44
2023/09/19 02:29:35;;;;;;;36.40;34.50;;;;;;;15.48;100.00;100124.09;4936222;29;20447;-43
2023/09/19 02:32:03;;;;;;;34.30;32.47;;;;;;;15.44;100.00;100123.75;4936394;29;20480;-45
2023/09/19 02:34:32;;;;;;;32.30;30.57;;;;;;;15.36;100.00;100131.38;4936710;29;20447;-43
2023/09/19 02:37:01;;;;;;;35.10;32.70;;;;;;;15.35;100.00;100132.47;4936577;29;20932;-41
2023/09/19 02:39:29;;;;;;;34.13;31.57;;;;;;;15.33;100.00;100137.25;4935884;29;20489;-45
2023/09/19 02:41:57;;;;;;;32.43;30.30;;;;;;;15.30;100.00;100140.41;4917620;29;20465;-43
2023/09/19 02:44:24;;;;;;;34.30;32.23;;;;;;;15.28;100.00;100155.97;4917472;29;20794;-43
2023/09/19 02:46:52;;;;;;;31.57;29.17;;;;;;;15.29;100.00;100157.63;4928382;29;20814;-45
2023/09/19 02:49:20;;;;;;;28.43;27.00;;;;;;;15.30;100.00;100151.97;4953859;28;20466;-43
2023/09/19 02:51:48;;;;;;;27.27;25.77;;;;;;;15.31;100.00;100158.19;4955357;28;20926;-42
2023/09/19 02:54:17;;;;;;;27.57;25.67;;;;;;;15.32;100.00;100167.88;4955528;29;20519;-43
2023/09/19 02:56:45;;;;;;;26.37;25.10;;;;;;;15.34;100.00;100222.16;4955242;29;20440;-48
2023/09/19 02:59:12;;;;;;;40.67;36.97;;;;;;;15.36;100.00;100233.47;4954555;28;21007;-43
2023/09/19 03:01:40;;;;;;;42.60;38.80;;;;;;;15.24;100.00;100251.50;4955261;28;20541;-42
2023/09/19 03:04:11;;;;;;;32.57;30.83;;;;;;;15.05;100.00;100247.38;4955343;28;20945;-43
2023/09/19 03:06:39;;;;;;;30.37;28.37;;;;;;;14.77;100.00;100229.34;4955218;29;20436;-41
2023/09/19 03:09:12;;;;;;;30.20;28.10;;;;;;;14.57;100.00;100223.53;4954942;28;20464;-43
2023/09/19 03:11:42;;;;;;;32.00;29.53;;;;;;;14.47;100.00;100208.03;4947011;28;21006;-44
2023/09/19 03:14:10;;;;;;;30.13;28.00;;;;;;;14.43;100.00;100214.91;4955413;29;20874;-43
2023/09/19 03:16:38;;;;;;;32.03;29.80;;;;;;;14.37;100.00;100213.16;4947120;29;20445;-41
2023/09/19 03:19:07;;;;;;;31.13;29.13;;;;;;;14.34;100.00;100217.13;4938376;28;20461;-43
2023/09/19 03:21:35;;;;;;;30.80;28.90;;;;;;;14.28;100.00;100209.97;4935644;29;20489;-43
2023/09/19 03:24:04;;;;;;;32.33;29.83;;;;;;;14.24;100.00;100208.00;4935605;29;20476;-43
2023/09/19 03:26:33;;;;;;;33.37;31.20;;;;;;;14.18;100.00;100219.66;4941928;29;20432;-39
2023/09/19 03:29:06;;;;;;;35.10;32.90;;;;;;;14.14;100.00;100219.31;4935288;29;20461;-43
2023/09/19 03:31:36;;;;;;;36.43;34.00;;;;;;;14.09;100.00;100216.53;4935372;29;20547;-40
2023/09/19 03:34:05;;;;;;;37.53;35.40;;;;;;;14.04;100.00;100213.69;4935688;29;20444;-48
2023/09/19 03:36:32;;;;;;;41.00;38.40;;;;;;;13.97;100.00;100217.56;4935405;29;21032;-45
2023/09/19 03:39:00;;;;;;;43.33;39.80;;;;;;;13.93;100.00;100211.00;4926456;29;20549;-43
2023/09/19 03:41:28;;;;;;;44.80;41.77;;;;;;;13.92;100.00;100218.22;4935295;29;20476;-48
2023/09/19 03:43:55;;;;;;;46.13;42.83;;;;;;;13.89;100.00;100216.00;4935379;29;20433;-46
2023/09/19 03:46:25;;;;;;;45.90;43.20;;;;;;;13.89;100.00;100212.53;4935476;29;20441;-44
2023/09/19 03:48:52;;;;;;;49.07;46.10;;;;;;;13.89;100.00;100210.66;4934768;29;20495;-45
2023/09/19 03:51:20;;;;;;;49.13;45.77;;;;;;;13.84;100.00;100208.66;4935087;29;20504;-43
2023/09/19 03:53:49;;;;;;;50.50;46.73;;;;;;;13.87;100.00;100218.09;4935283;29;20472;-41
2023/09/19 03:56:17;;;;;;;53.07;49.83;;;;;;;13.88;100.00;100222.44;4935406;29;20445;-43
2023/09/19 03:58:44;;;;;;;49.30;45.90;;;;;;;13.90;100.00;100219.50;4934464;29;20469;-46
2023/09/19 04:01:13;;;;;;;48.90;45.27;;;;;;;13.89;100.00;100220.56;4934909;29;20472;-46
2023/09/19 04:03:48;;;;;;;48.63;45.80;;;;;;;13.92;100.00;100217.44;4934879;29;20509;-44
2023/09/19 04:06:16;;;;;;;52.07;48.20;;;;;;;13.90;100.00;100212.28;4935204;29;20467;-43
2023/09/19 04:08:44;;;;;;;49.33;46.67;;;;;;;13.90;100.00;100212.28;4930469;29;20496;-43
2023/09/19 04:11:12;;;;;;;53.27;49.83;;;;;;;13.88;100.00;100213.56;4934859;29;20857;-47
2023/09/19 04:13:40;;;;;;;49.80;46.30;;;;;;;13.85;100.00;100210.31;4934719;29;20571;-48
2023/09/19 04:16:09;;;;;;;53.57;50.17;;;;;;;13.83;100.00;100223.09;4934910;29;20444;-42
2023/09/19 04:18:39;;;;;;;54.00;50.63;;;;;;;13.83;100.00;100224.97;4934184;29;21067;-48
2023/09/19 04:21:08;;;;;;;56.67;53.40;;;;;;;13.79;100.00;100213.91;4934679;29;20488;-43
2023/09/19 04:23:36;;;;;;;53.40;49.93;;;;;;;13.81;100.00;100225.22;4934992;29;20816;-43
2023/09/19 04:26:04;;;;;;;55.70;52.20;;;;;;;13.83;100.00;100231.16;4934638;29;20508;-44
2023/09/19 04:28:34;;;;;;;51.47;48.77;;;;;;;13.85;100.00;100238.97;4934301;29;20464;-43
2023/09/19 04:31:01;;;;;;;52.70;49.43;;;;;;;13.85;100.00;100238.97;4934373;29;20959;-44
2023/09/19 04:33:29;;;;;;;55.10;51.40;;;;;;;13.89;100.00;100220.56;4934909;29;20510;-47
2023/09/19 04:35:57;;;;;;;54.13;50.60;;;;;;;13.90;100.00;100236.41;4934648;29;20468;-43
2023/09/19 04:38:36;;;;;;;52.50;49.80;;;;;;;13.95;100.00;100257.19;4934492;29;20897;-43
2023/09/19 04:41:04;;;;;;;54.50;51.60;;;;;;;13.94;100.00;100256.38;4934304;29;20828;-44
2023/09/19 04:43:31;;;;;;;57.47;53.70;;;;;;;13.92;100.00;100265.69;4934517;29;20521;-43
2023/09/19 04:46:00;;;;;;;56.60;53.53;;;;;;;13.93;100.00;100253.91;4934361;29;20441;-48
2023/09/19 04:48:28;;;;;;;58.17;54.90;;;;;;;13.90;100.00;100262.41;4934179;29;20456;-43
2023/09/19 04:50:56;;;;;;;54.17;51.00;;;;;;;13.88;100.00;100269.84;4933828;29;20467;-41
2023/09/19 04:53:24;;;;;;;52.87;49.50;;;;;;;13.83;100.00;100267.84;4934291;29;20920;-43
2023/09/19 04:55:55;;;;;;;50.33;47.87;;;;;;;13.81;100.00;100254.69;4934300;29;20958;-43
2023/09/19 04:58:23;;;;;;;51.37;48.80;;;;;;;13.80;100.00;100260.25;4934088;29;20465;-45
2023/09/19 05:00:51;;;;;;;50.20;47.50;;;;;;;13.82;100.00;100272.41;4933708;29;20527;-43
2023/09/19 05:03:20;;;;;;;48.70;46.40;;;;;;;13.89;100.00;100274.19;4934341;29;20984;-45
2023/09/19 05:05:48;;;;;;;50.67;47.20;;;;;;;13.90;100.00;100275.78;4934138;29;20441;-44
2023/09/19 05:08:15;;;;;;;45.57;42.70;;;;;;;13.90;100.00;100278.47;4933325;29;21083;-43
2023/09/19 05:10:43;;;;;;;42.17;39.77;;;;;;;13.90;100.00;100289.19;4926239;29;20440;-43
2023/09/19 05:13:12;;;;;;;41.93;39.03;;;;;;;13.89;100.00;100287.59;4934284;29;20533;-44
2023/09/19 05:15:40;;;;;;;39.37;37.07;;;;;;;13.92;100.00;100269.16;4934250;29;20472;-44
2023/09/19 05:18:08;;;;;;;36.03;33.90;;;;;;;13.85;100.00;100263.91;4933667;29;20461;-43
2023/09/19 05:20:37;;;;;;;37.80;36.10;;;;;;;13.89;100.00;100266.94;4934121;29;20444;-46
2023/09/19 05:23:08;;;;;;;34.00;32.30;;;;;;;13.81;100.00;100264.59;4934293;29;20461;-44
2023/09/19 05:25:38;;;;;;;36.27;33.70;;;;;;;13.84;100.00;100266.81;4934009;29;20701;-42
2023/09/19 05:28:07;;;;;;;33.23;31.33;;;;;;;13.88;100.00;100272.53;4933566;28;21047;-48
2023/09/19 05:30:38;;;;;;;32.43;30.50;;;;;;;13.91;100.00;100272.09;4933659;29;20480;-44
2023/09/19 05:33:07;;;;;;;31.30;29.40;;;;;;;13.89;100.00;100280.34;4926279;29;20488;-47
2023/09/19 05:35:36;;;;;;;30.03;28.40;;;;;;;13.94;100.00;100285.03;4934150;29;20440;-44
2023/09/19 05:38:05;;;;;;;29.80;28.50;;;;;;;13.97;100.00;100290.75;4933645;29;20464;-44
2023/09/19 05:40:33;;;;;;;31.10;29.30;;;;;;;13.94;100.00;100285.03;4933793;29;20532;-41
2023/09/19 05:43:01;;;;;;;30.97;29.47;;;;;;;13.89;100.00;100306.34;4933878;29;20536;-43
2023/09/19 05:45:28;;;;;;;32.43;30.77;;;;;;;13.80;100.00;100297.78;4934075;29;20443;-44
2023/09/19 05:48:08;;;;;;;31.53;29.50;;;;;;;13.79;100.00;100299.69;4933156;28;20464;-43
2023/09/19 05:50:36;;;;;;;33.83;32.13;;;;;;;13.78;100.00;100314.09;4933770;29;20512;-43
2023/09/19 05:53:05;;;;;;;31.20;29.43;;;;;;;13.80;100.00;100306.66;4933677;29;20484;-43
2023/09/19 05:55:33;;;;;;;31.27;29.40;;;;;;;13.79;100.00;100317.63;4933923;29;20441;-44
2023/09/19 05:58:03;;;;;;;32.67;30.90;;;;;;;13.79;100.00;100329.16;4933532;28;20472;-49
2023/09/19 06:00:31;;;;;;;34.10;32.13;;;;;;;13.83;100.00;100313.41;4933431;29;20441;-50
2023/09/19 06:03:01;;;;;;;37.03;34.47;;;;;;;13.86;100.00;100327.19;4935510;29;20460;-48
2023/09/19 06:05:30;;;;;;;36.23;33.60;;;;;;;13.79;100.00;100334.50;4937322;29;20532;-47
2023/09/19 06:07:59;;;;;;;34.50;31.77;;;;;;;13.77;100.00;100336.59;4936770;29;21011;-47
2023/09/19 06:10:29;;;;;;;33.63;32.00;;;;;;;13.69;100.00;100338.75;4936876;29;20925;-44
2023/09/19 06:12:57;;;;;;;34.10;32.30;;;;;;;13.67;100.00;100333.66;4936959;29;20476;-46
2023/09/19 06:15:25;;;;;;;33.33;31.80;;;;;;;13.67;100.00;100328.28;4937316;29;20852;-47
2023/09/19 06:17:56;;;;;;;35.93;33.90;;;;;;;13.66;100.00;100336.53;4936622;28;20563;-47
2023/09/19 06:20:26;;;;;;;34.20;32.47;;;;;;;13.67;100.00;100335.50;4936760;29;20444;-47
2023/09/19 06:22:54;;;;;;;32.43;30.83;;;;;;;13.64;100.00;100331.41;4937134;29;20516;-49
2023/09/19 06:25:22;;;;;;;34.97;33.27;;;;;;;13.64;100.00;100347.50;4936722;29;20436;-45
2023/09/19 06:27:53;;;;;;;35.47;33.50;;;;;;;13.62;100.00;100365.63;4936236;29;20831;-42
2023/09/19 06:30:22;;;;;;;34.53;32.53;;;;;;;13.60;100.00;100383.81;4936760;29;20856;-51
2023/09/19 06:32:56;;;;;;;35.90;33.83;;;;;;;13.67;100.00;100381.06;4936491;29;20802;-43
2023/09/19 06:35:26;;;;;;;35.73;34.13;;;;;;;13.59;100.00;100386.72;4936618;29;20517;-50
2023/09/19 06:37:57;;;;;;;31.77;29.77;;;;;;;13.49;100.00;100383.75;4936058;29;20464;-45
2023/09/19 06:40:25;;;;;;;31.70;30.10;;;;;;;13.42;100.00;100377.63;4936565;29;20437;-45
2023/09/19 06:42:55;;;;;;;35.50;33.30;;;;;;;13.28;100.00;100358.22;4936698;29;20461;-47
2023/09/19 06:45:26;;;;;;;38.07;36.00;;;;;;;13.14;100.00;100368.25;4936792;29;20851;-44
2023/09/19 06:47:57;;;;;;;40.53;38.20;;;;;;;13.06;100.00;100359.66;4936196;29;20472;-43
2023/09/19 06:50:26;;;;;;;47.33;44.83;;;;;;;13.09;100.00;100341.34;4936287;29;20437;-47
2023/09/19 06:52:57;;;;;;;49.00;46.20;;;;;;;13.08;100.00;100354.97;4936543;29;20845;-45
2023/09/19 06:55:27;;;;;;;44.63;42.43;;;;;;;13.15;100.00;100350.34;4936495;29;20432;-47
2023/09/19 06:57:56;;;;;;;47.40;44.50;;;;;;;13.16;100.00;100360.00;4935521;28;20527;-43
2023/09/19 07:00:24;;;;;;;45.20;42.33;;;;;;;13.26;100.00;100371.84;4936129;29;20468;-43
2023/09/19 07:03:00;;;;;;;42.90;39.93;;;;;;;13.39;100.00;100352.13;4935813;29;20464;-44
2023/09/19 07:05:29;;;;;;;39.83;37.30;;;;;;;13.50;100.00;100364.75;4936283;29;21046;-42
2023/09/19 07:07:58;;;;;;;37.87;35.57;;;;;;;13.69;100.00;100373.59;4935780;28;20460;-43
2023/09/19 07:10:27;;;;;;;32.83;31.10;;;;;;;13.92;100.00;100367.53;4935906;29;20811;-45
2023/09/19 07:12:57;;;;;;;33.53;31.40;;;;;;;14.16;100.00;100377.28;4935637;29;20472;-42
2023/09/19 07:15:25;;;;;;;35.83;33.57;;;;;;;14.31;100.00;100383.84;4935632;29;20551;-44
2023/09/19 07:17:53;;;;;;;30.77;29.03;;;;;;;14.45;100.00;100365.75;4935309;29;21011;-43
2023/09/19 07:20:21;;;;;;;34.47;31.60;;;;;;;14.48;100.00;100361.78;4935783;29;20483;-40
2023/09/19 07:22:50;;;;;;;30.67;28.80;;;;;;;14.57;100.00;100365.75;4935787;29;20894;-42
2023/09/19 07:25:19;;;;;;;33.67;31.63;;;;;;;14.70;100.00;100362.84;4935747;29;20495;-41
2023/09/19 07:27:47;;;;;;;33.27;31.20;;;;;;;14.82;100.00;100366.34;4935111;29;20464;-42
2023/09/19 07:30:16;;;;;;;33.37;31.30;;;;;;;14.94;100.00;100369.84;4935488;29;20880;-42
2023/09/19 07:32:43;;;;;;;32.17;29.37;;;;;;;14.93;100.00;100363.66;4935929;29;21054;-42
2023/09/19 07:35:12;;;;;;;34.50;31.97;;;;;;;15.09;100.00;100374.75;4943346;29;20479;-40
2023/09/19 07:37:39;;;;;;;31.77;29.47;;;;;;;15.19;100.00;100369.59;4934959;29;20476;-42
2023/09/19 07:40:09;;;;;;;30.30;28.60;;;;;;;15.29;100.00;100362.56;4935142;29;20524;-43
2023/09/19 07:42:40;;;;;;;31.97;30.13;;;;;;;15.37;100.00;100369.47;4935237;29;20456;-43
2023/09/19 07:45:09;;;;;;;31.20;28.97;;;;;;;15.50;100.00;100374.63;4935397;29;20429;-40
2023/09/19 07:47:37;;;;;;;29.63;27.50;;;;;;;15.66;100.00;100376.53;4935084;29;20464;-40
2023/09/19 07:50:07;;;;;;;31.90;29.67;;;;;;;15.69;100.00;100377.94;4934963;29;20515;-42
2023/09/19 07:52:35;;;;;;;33.67;31.17;;;;;;;15.60;100.00;100366.75;4935240;29;20456;-41
2023/09/19 07:55:08;;;;;;;33.17;31.23;;;;;;;15.51;100.00;100386.97;4935012;29;20492;-42
2023/09/19 07:57:38;;;;;;;33.77;31.37;;;;;;;15.52;100.00;100383.25;4934964;28;20457;-43
2023/09/19 08:00:07;;;;;;;34.70;32.27;;;;;;;15.51;100.00;100384.28;4934828;29;20448;-42
2023/09/19 08:02:36;;;;;;;32.93;30.77;;;;;;;15.59;100.00;100380.44;4934942;29;20813;-45
2023/09/19 08:05:06;;;;;;;31.97;29.60;;;;;;;15.66;100.00;100373.03;4934869;29;20433;-46
2023/09/19 08:07:36;;;;;;;32.80;30.83;;;;;;;15.76;100.00;100390.19;4934701;29;20455;-40
2023/09/19 08:10:04;;;;;;;34.77;31.97;;;;;;;15.82;100.00;100391.13;4934789;29;20475;-46
2023/09/19 08:12:32;;;;;;;33.53;31.20;;;;;;;15.79;100.00;100386.22;4935001;29;20456;-42
2023/09/19 08:15:01;;;;;;;35.07;32.57;;;;;;;15.78;100.00;100395.31;4934796;29;20480;-42
2023/09/19 08:17:29;;;;;;;35.27;33.00;;;;;;;15.75;100.00;100382.34;4934481;29;20504;-42
2023/09/19 08:19:57;;;;;;;33.97;31.70;;;;;;;15.80;100.00;100387.84;4934229;29;20437;-46
2023/09/19 08:22:24;;;;;;;33.47;31.03;;;;;;;15.81;100.00;100384.09;4934734;29;20484;-45
2023/09/19 08:24:52;;;;;;;35.80;33.40;;;;;;;15.79;100.00;100356.63;4934254;29;20440;-45
2023/09/19 08:27:20;;;;;;;37.43;35.03;;;;;;;15.89;100.00;100367.56;4934135;29;20440;-44
2023/09/19 08:29:50;;;;;;;36.20;33.90;;;;;;;15.91;100.00;100385.13;4934224;29;20472;-45
2023/09/19 08:32:23;;;;;;;36.30;33.20;;;;;;;16.38;100.00;100390.25;4934720;29;20805;-44
2023/09/19 08:34:51;;;;;;;31.83;30.13;;;;;;;16.94;100.00;100376.66;4934320;29;20480;-42
2023/09/19 08:37:19;;;;;;;30.13;28.30;;;;;;;17.37;100.00;100367.84;4934130;29;20459;-42
2023/09/19 08:39:47;;;;;;;32.83;30.50;;;;;;;17.50;100.00;100363.97;4934357;29;20442;-41
2023/09/19 08:42:16;;;;;;;28.53;26.60;;;;;;;17.60;100.00;100364.09;4934383;29;20543;-41
2023/09/19 08:44:44;;;;;;;30.27;28.23;;;;;;;17.91;100.00;100354.50;4934282;29;20433;-44
2023/09/19 08:47:16;;;;;;;28.23;26.63;;;;;;;18.28;100.00;100368.09;4934182;29;20436;-43
2023/09/19 08:50:00;;;;;;;30.07;27.77;;;;;;;18.52;100.00;100375.59;4934362;29;20853;-48
2023/09/19 08:52:33;;;;;;;28.63;27.03;;;;;;;18.65;100.00;100356.28;4934417;29;20520;-46
2023/09/19 08:55:04;;;;;;;28.13;26.50;;;;;;;18.54;100.00;100353.75;4934146;29;20566;-42
2023/09/19 08:57:35;;;;;;;27.03;25.07;;;;;;;18.40;100.00;100352.53;4933762;29;20456;-42
2023/09/19 09:00:06;;;;;;;28.60;26.47;;;;;;;18.27;100.00;100351.06;4934079;29;20534;-42
2023/09/19 09:02:34;;;;;;;26.90;25.00;;;;;;;17.99;100.00;100349.44;4934050;29;20809;-44
2023/09/19 09:05:07;;;;;;;27.67;25.57;;;;;;;17.80;100.00;100371.63;4934079;29;20439;-40
2023/09/19 09:07:35;;;;;;;27.13;25.63;;;;;;;17.70;100.00;100372.31;4933939;28;20488;-45
2023/09/19 09:10:04;;;;;;;27.40;25.23;;;;;;;17.76;100.00;100373.19;4933753;29;20444;-45
2023/09/19 09:12:32;;;;;;;28.73;26.30;;;;;;;17.88;100.00;100377.41;4933854;29;20523;-43
2023/09/19 09:15:00;;;;;;;27.17;25.30;;;;;;;17.69;100.00;100394.97;4934012;29;20483;-44
2023/09/19 09:17:28;;;;;;;29.27;27.10;;;;;;;17.78;100.00;100400.72;4933641;29;20460;-40
2023/09/19 09:19:56;;;;;;;28.00;26.40;;;;;;;17.63;100.00;100394.09;4933729;29;21000;-41
2023/09/19 09:22:26;;;;;;;27.57;25.73;;;;;;;17.64;100.00;100400.31;4933846;29;20788;-43
2023/09/19 09:24:57;;;;;;;28.30;26.67;;;;;;;17.55;100.00;100399.09;4933857;29;20487;-42
2023/09/19 09:27:25;;;;;;;28.47;26.57;;;;;;;17.52;100.00;100384.22;4933536;29;20462;-43
2023/09/19 09:29:54;;;;;;;27.10;25.07;;;;;;;17.41;100.00;100390.53;4933807;29;20492;-45
2023/09/19 09:32:25;;;;;;;28.17;26.10;;;;;;;17.60;100.00;100391.91;4933720;29;20456;-41
2023/09/19 09:34:55;;;;;;;27.67;25.67;;;;;;;17.49;100.00;100392.00;4933689;29;20476;-45
2023/09/19 09:37:30;;;;;;;26.13;24.63;;;;;;;17.76;100.00;100390.19;4936568;29;20475;-42
2023/09/19 09:40:19;;;;;;;26.40;24.20;;;;;;;17.69;100.00;100394.97;4937211;29;20959;-41
2023/09/19 09:42:49;;;;;;;26.57;24.70;;;;;;;17.75;100.00;100382.34;4937500;29;20963;-41
2023/09/19 09:45:19;;;;;;;27.47;25.60;;;;;;;17.96;100.00;100381.50;4929955;29;20484;-39
2023/09/19 09:47:54;;;;;;;27.23;25.13;;;;;;;18.05;100.00;100378.13;4937428;29;20456;-44
2023/09/19 09:50:29;;;;;;;24.70;23.40;;;;;;;18.19;100.00;100365.84;4930334;29;20471;-42
2023/09/19 09:53:06;;;;;;;26.47;24.37;;;;;;;18.37;100.00;100369.25;4937634;29;20513;-46
2023/09/19 09:55:59;;;;;;;26.10;24.00;;;;;;;18.66;100.00;100370.59;4937181;29;20978;-44
2023/09/19 09:58:29;;;;;;;24.30;22.80;;;;;;;18.82;100.00;100366.94;4930427;29;20467;-41
2023/09/19 10:00:58;;;;;;;25.53;24.10;;;;;;;18.93;100.00;100363.25;4936991;29;20458;-46
2023/09/19 10:03:39;;;;;;;23.43;22.03;;;;;;;19.07;100.00;100358.19;4937553;29;20444;-41
2023/09/19 10:06:26;;;;;;;24.10;22.30;;;;;;;19.32;100.00;100361.81;4937103;29;20436;-44
2023/09/19 10:09:10;;;;;;;23.00;21.40;;;;;;;19.33;100.00;100360.75;4936533;28;20869;-44
2023/09/19 10:11:42;;;;;;;24.03;22.80;;;;;;;19.49;100.00;100361.69;4937013;29;20471;-42
2023/09/19 10:14:12;;;;;;;23.50;22.10;;;;;;;19.47;100.00;100363.84;4937118;29;20897;-39
2023/09/19 10:16:46;;;;;;;21.53;19.83;;;;;;;19.32;100.00;100363.75;4936790;29;20476;-44
2023/09/19 10:19:22;;;;;;;20.70;19.30;;;;;;;19.42;100.00;100355.69;4936318;29;20482;-40
2023/09/19 10:21:51;;;;;;;20.90;19.40;;;;;;;19.38;100.00;100370.78;4936975;29;20455;-45
2023/09/19 10:24:24;;;;;;;20.80;19.50;;;;;;;19.41;100.00;100364.06;4936915;29;20809;-42
2023/09/19 10:26:53;;;;;;;20.87;19.47;;;;;;;19.47;100.00;100363.03;4936927;29;20447;-42
2023/09/19 10:29:22;;;;;;;20.47;19.33;;;;;;;19.65;100.00;100357.94;4936173;29;20515;-41
2023/09/19 10:31:53;;;;;;;21.17;19.77;;;;;;;19.96;100.00;100379.69;4936806;29;20491;-40
2023/09/19 10:34:23;;;;;;;20.30;18.80;;;;;;;20.01;100.00;100379.72;4936796;29;20995;-42
2023/09/19 10:36:52;;;;;;;19.87;18.57;;;;;;;20.38;100.00;100367.59;4936664;29;20629;-42
2023/09/19 10:39:22;;;;;;;20.73;19.07;;;;;;;20.32;100.00;100367.88;4935845;29;21043;-43
2023/09/19 10:41:58;;;;;;;18.30;17.00;;;;;;;20.31;100.00;100367.06;4936408;29;20535;-42
2023/09/19 10:44:28;;;;;;;17.60;16.10;;;;;;;20.52;100.00;100364.38;4929782;29;20467;-43
2023/09/19 10:46:56;;;;;;;17.57;16.23;;;;;;;20.16;100.00;100361.59;4936500;29;20436;-45
2023/09/19 10:49:25;;;;;;;15.83;14.43;;;;;;;20.12;100.00;100346.97;4928273;29;21075;-44
2023/09/19 10:51:58;;;;;;;14.70;13.60;;;;;;;20.32;100.00;100365.16;4936311;29;20466;-43
2023/09/19 10:54:32;;;;;;;13.00;11.90;;;;;;;20.49;100.00;100360.28;4929464;29;20840;-44
2023/09/19 10:57:01;;;;;;;12.43;10.97;;;;;;;20.19;100.00;100362.97;4936396;29;20479;-43
2023/09/19 10:59:34;;;;;;;11.40;10.27;;;;;;;20.24;100.00;100360.25;4935862;29;20955;-43
2023/09/19 11:02:18;;;;;;;12.07;11.00;;;;;;;20.40;100.00;100367.31;4952882;28;20463;-46
2023/09/19 11:04:48;;;;;;;11.60;10.80;;;;;;;20.08;100.00;100353.19;4947380;29;20917;-44
2023/09/19 11:07:16;;;;;;;11.80;10.70;;;;;;;20.13;100.00;100353.22;4945048;28;20815;-44
2023/09/19 11:09:51;;;;;;;9.67;8.77;;;;;;;19.80;100.00;100362.59;4935834;29;20445;-42
2023/09/19 11:12:49;;;;;;;9.57;8.60;;;;;;;19.48;100.00;100367.34;4936021;29;20458;-43
2023/09/19 11:15:54;;;;;;;11.37;9.50;;;;;;;19.40;100.00;100374.06;4895741;29;20446;-41